createdAt,value
2018-07-31T00:01:16.853Z,59.10
2018-07-31T00:03:45.313Z,59.30
2018-07-31T00:06:22.507Z,59.40
2018-07-31T00:08:51.986Z,59.60
2018-07-31T00:11:20.850Z,59.70
2018-07-31T00:13:49.351Z,60.60
2018-07-31T00:16:17.936Z,60.00
2018-07-31T00:18:46.482Z,60.00
2018-07-31T00:21:14.962Z,60.00
2018-07-31T00:23:43.458Z,60.10
2018-07-31T00:26:11.942Z,60.10
2018-07-31T00:28:40.463Z,60.10
2018-07-31T00:33:37.099Z,60.40
2018-07-31T00:36:05.597Z,60.50
2018-07-31T00:38:34.178Z,60.50
2018-07-31T00:41:02.660Z,60.80
2018-07-31T00:45:59.651Z,60.90
2018-07-31T00:48:28.156Z,60.80
2018-07-31T00:50:56.669Z,61.10
2018-07-31T00:53:25.230Z,62.00
2018-07-31T00:55:53.688Z,61.40
2018-07-31T00:58:22.194Z,61.60
2018-07-31T01:00:50.671Z,61.70
2018-07-31T01:03:19.184Z,61.80
2018-07-31T01:05:47.679Z,61.80
2018-07-31T01:08:16.290Z,61.80
2018-07-31T01:10:44.775Z,61.80
2018-07-31T01:13:13.296Z,62.10
2018-07-31T01:15:41.799Z,62.10
2018-07-31T01:18:10.315Z,62.20
2018-07-31T01:20:38.780Z,62.30
2018-07-31T01:23:07.282Z,62.30
2018-07-31T01:25:35.774Z,62.20
2018-07-31T01:28:04.288Z,62.10
2018-07-31T01:30:32.765Z,62.00
2018-07-31T01:33:01.306Z,62.00
2018-07-31T01:35:29.812Z,62.10
2018-07-31T01:37:58.301Z,62.00
2018-07-31T01:40:26.740Z,62.10
2018-07-31T01:42:55.244Z,62.10
2018-07-31T01:45:23.711Z,61.80
2018-07-31T01:47:52.224Z,61.90
2018-07-31T01:50:20.711Z,61.70
2018-07-31T01:52:49.203Z,61.70
2018-07-31T01:55:17.671Z,61.70
2018-07-31T01:57:46.703Z,61.70
2018-07-31T02:00:15.519Z,61.90
2018-07-31T02:02:45.460Z,62.00
2018-07-31T02:05:14.014Z,62.00
2018-07-31T02:07:42.514Z,62.10
2018-07-31T02:10:11.044Z,62.30
2018-07-31T02:12:39.648Z,62.40
2018-07-31T02:15:08.515Z,62.60
2018-07-31T02:17:37.050Z,62.60
2018-07-31T02:20:05.599Z,62.70
2018-07-31T02:22:34.054Z,62.80
2018-07-31T02:25:02.622Z,62.80
2018-07-31T02:27:31.094Z,62.90
2018-07-31T02:30:04.824Z,62.80
2018-07-31T02:32:33.272Z,62.80
2018-07-31T02:35:01.759Z,62.80
2018-07-31T02:39:58.378Z,63.00
2018-07-31T02:42:26.883Z,63.20
2018-07-31T02:44:55.359Z,63.20
2018-07-31T02:47:23.928Z,63.10
2018-07-31T02:49:52.353Z,63.00
2018-07-31T02:52:20.845Z,62.90
2018-07-31T02:54:49.412Z,62.80
2018-07-31T02:57:17.896Z,62.80
2018-07-31T02:59:46.361Z,62.90
2018-07-31T03:02:14.844Z,62.80
2018-07-31T03:04:43.631Z,62.80
2018-07-31T03:07:12.148Z,63.10
2018-07-31T03:09:40.584Z,63.10
2018-07-31T03:12:09.066Z,63.20
2018-07-31T03:14:37.512Z,63.40
2018-07-31T03:17:06.047Z,63.40
2018-07-31T03:19:34.522Z,63.40
2018-07-31T03:22:02.982Z,63.80
2018-07-31T03:24:31.776Z,64.00
2018-07-31T03:27:00.277Z,64.30
2018-07-31T03:29:28.726Z,64.70
2018-07-31T03:31:57.239Z,65.10
2018-07-31T03:34:25.998Z,65.30
2018-07-31T03:36:54.559Z,65.50
2018-07-31T03:39:22.975Z,65.60
2018-07-31T03:41:51.466Z,66.00
2018-07-31T03:44:19.935Z,65.90
2018-07-31T03:46:48.409Z,65.90
2018-07-31T03:49:17.008Z,66.00
2018-07-31T03:51:45.515Z,66.10
2018-07-31T03:54:13.969Z,66.20
2018-07-31T03:56:42.830Z,66.20
2018-07-31T03:59:11.334Z,66.40
2018-07-31T04:01:39.846Z,66.40
2018-07-31T04:04:08.638Z,66.40
2018-07-31T04:06:37.327Z,66.20
2018-07-31T04:09:08.906Z,66.50
2018-07-31T04:11:37.544Z,66.60
2018-07-31T04:14:06.058Z,66.70
2018-07-31T04:16:34.518Z,66.80
2018-07-31T04:19:03.067Z,66.80
2018-07-31T04:21:31.667Z,67.00
2018-07-31T04:24:00.210Z,67.10
2018-07-31T04:26:29.523Z,67.10
2018-07-31T04:28:58.006Z,67.10
2018-07-31T04:31:26.439Z,67.20
2018-07-31T04:33:54.926Z,67.10
2018-07-31T04:36:23.365Z,67.00
2018-07-31T04:38:51.847Z,67.00
2018-07-31T04:41:20.353Z,66.80
2018-07-31T04:43:48.979Z,66.90
2018-07-31T04:46:17.471Z,66.80
2018-07-31T04:48:45.967Z,66.80
2018-07-31T04:51:14.406Z,66.70
2018-07-31T04:53:42.999Z,66.60
2018-07-31T04:56:11.439Z,66.60
2018-07-31T04:58:39.875Z,66.50
2018-07-31T05:01:08.344Z,66.30
2018-07-31T05:03:37.139Z,66.20
2018-07-31T05:06:05.663Z,66.40
2018-07-31T05:08:34.077Z,66.30
2018-07-31T05:13:30.901Z,66.00
2018-07-31T05:15:59.366Z,65.70
2018-07-31T05:18:27.920Z,65.50
2018-07-31T05:20:56.904Z,65.50
2018-07-31T05:23:25.392Z,65.30
2018-07-31T05:25:53.881Z,65.10
2018-07-31T05:28:22.364Z,65.00
2018-07-31T05:30:50.845Z,64.50
2018-07-31T05:33:19.649Z,64.20
2018-07-31T05:35:48.112Z,63.90
2018-07-31T05:38:16.567Z,63.40
2018-07-31T05:40:45.073Z,62.90
2018-07-31T05:43:13.523Z,62.50
2018-07-31T05:45:42.302Z,63.00
2018-07-31T05:48:10.773Z,61.90
2018-07-31T05:50:39.202Z,62.00
2018-07-31T05:53:07.683Z,62.00
2018-07-31T05:55:36.108Z,61.80
2018-07-31T05:58:04.604Z,61.30
2018-07-31T06:00:33.052Z,61.30
2018-07-31T06:03:01.585Z,60.70
2018-07-31T06:05:30.016Z,60.30
2018-07-31T06:07:58.470Z,60.30
2018-07-31T06:10:26.944Z,60.10
2018-07-31T06:12:55.787Z,59.90
2018-07-31T06:17:53.015Z,59.20
2018-07-31T06:20:21.698Z,58.90
2018-07-31T06:22:50.556Z,59.10
2018-07-31T06:25:19.705Z,58.50
2018-07-31T06:27:48.236Z,57.90
2018-07-31T06:30:16.661Z,57.70
2018-07-31T06:32:45.156Z,57.30
2018-07-31T06:35:13.767Z,57.20
2018-07-31T06:37:42.234Z,56.90
2018-07-31T06:42:38.868Z,56.10
2018-07-31T06:45:07.686Z,55.70
2018-07-31T06:47:36.163Z,55.70
2018-07-31T06:50:04.927Z,55.20
2018-07-31T06:52:33.398Z,54.60
2018-07-31T06:55:01.836Z,54.40
2018-07-31T06:57:30.315Z,53.30
2018-07-31T06:59:59.336Z,53.50
2018-07-31T07:02:28.385Z,53.10
2018-07-31T07:04:57.392Z,52.10
2018-07-31T07:07:26.404Z,51.30
2018-07-31T07:09:55.378Z,51.40
2018-07-31T07:12:24.441Z,51.10
2018-07-31T07:14:53.422Z,50.90
2018-07-31T07:17:22.452Z,50.60
2018-07-31T07:19:51.480Z,50.00
2018-07-31T07:22:20.506Z,49.60
2018-07-31T07:24:49.496Z,49.50
2018-07-31T07:27:18.551Z,47.70
2018-07-31T07:29:47.617Z,47.60
2018-07-31T07:32:16.648Z,47.60
2018-07-31T07:34:45.616Z,47.80
2018-07-31T07:37:14.619Z,47.60
2018-07-31T07:39:43.603Z,47.30
2018-07-31T07:42:12.969Z,47.70
2018-07-31T07:44:41.956Z,47.00
2018-07-31T07:47:11.238Z,46.90
2018-07-31T07:49:40.243Z,46.40
2018-07-31T07:52:09.592Z,46.20
2018-07-31T07:54:38.579Z,46.20
2018-07-31T07:57:07.640Z,45.20
2018-07-31T07:59:37.232Z,44.70
2018-07-31T08:02:06.322Z,45.10
2018-07-31T08:04:35.508Z,44.70
2018-07-31T08:07:04.844Z,44.00
2018-07-31T08:09:33.906Z,43.10
2018-07-31T08:12:02.972Z,42.70
2018-07-31T08:14:32.043Z,41.40
2018-07-31T08:17:01.072Z,40.60
2018-07-31T08:19:30.087Z,41.20
2018-07-31T08:21:59.103Z,41.00
2018-07-31T08:24:28.128Z,40.50
2018-07-31T08:26:57.166Z,39.80
2018-07-31T08:29:26.148Z,38.90
2018-07-31T08:31:55.171Z,38.70
2018-07-31T08:34:24.236Z,38.30
2018-07-31T08:36:53.439Z,38.70
2018-07-31T08:39:22.425Z,38.00
2018-07-31T08:41:51.465Z,36.90
2018-07-31T08:44:20.451Z,37.10
2018-07-31T08:46:49.810Z,36.80
2018-07-31T08:49:18.794Z,36.90
2018-07-31T08:51:47.865Z,36.20
2018-07-31T08:54:18.523Z,37.40
2018-07-31T08:56:47.609Z,35.30
2018-07-31T08:59:16.787Z,34.80
2018-07-31T09:01:45.811Z,34.30
2018-07-31T09:04:14.820Z,33.90
2018-07-31T09:06:43.867Z,34.40
2018-07-31T09:09:12.876Z,34.00
2018-07-31T09:11:41.866Z,31.70
2018-07-31T09:14:11.243Z,32.30
2018-07-31T09:16:40.250Z,31.40
2018-07-31T09:19:09.300Z,30.70
2018-07-31T09:21:38.634Z,30.40
2018-07-31T09:24:07.731Z,29.60
2018-07-31T09:26:36.431Z,29.50
2018-07-31T09:29:05.166Z,28.90
2018-07-31T09:31:33.849Z,29.10
2018-07-31T09:34:02.594Z,26.90
2018-07-31T09:36:31.348Z,27.60
2018-07-31T09:39:00.227Z,27.50
2018-07-31T09:41:28.957Z,27.40
2018-07-31T09:43:57.699Z,27.10
2018-07-31T09:46:26.395Z,26.70
2018-07-31T09:48:55.122Z,26.30
2018-07-31T09:51:23.822Z,26.60
2018-07-31T09:53:52.570Z,26.80
2018-07-31T09:56:21.502Z,27.10
2018-07-31T09:58:50.252Z,26.40
2018-07-31T10:01:20.094Z,26.90
2018-07-31T10:03:49.630Z,26.10
2018-07-31T10:06:18.450Z,26.30
2018-07-31T10:08:47.238Z,26.70
2018-07-31T10:11:15.967Z,27.00
2018-07-31T10:13:44.730Z,26.00
2018-07-31T10:16:13.437Z,26.60
2018-07-31T10:18:42.220Z,27.30
2018-07-31T10:21:10.925Z,27.50
2018-07-31T10:23:39.721Z,26.90
2018-07-31T10:26:08.450Z,27.80
2018-07-31T10:28:37.209Z,27.40
2018-07-31T10:31:06.522Z,27.30
2018-07-31T10:33:35.246Z,27.50
2018-07-31T10:36:03.967Z,26.80
2018-07-31T10:38:32.719Z,26.90
2018-07-31T10:41:02.007Z,25.90
2018-07-31T10:43:30.745Z,26.30
2018-07-31T10:45:59.652Z,26.90
2018-07-31T10:48:28.757Z,26.70
2018-07-31T10:50:57.477Z,26.40
2018-07-31T10:53:26.925Z,25.80
2018-07-31T10:55:55.979Z,26.30
2018-07-31T10:58:24.802Z,26.40
2018-07-31T11:00:53.843Z,27.00
2018-07-31T11:03:22.934Z,27.70
2018-07-31T11:05:51.732Z,27.10
2018-07-31T11:08:20.468Z,27.70
2018-07-31T11:10:49.199Z,28.40
2018-07-31T11:13:17.993Z,28.40
2018-07-31T11:15:46.904Z,28.10
2018-07-31T11:18:15.935Z,28.00
2018-07-31T11:20:44.673Z,27.70
2018-07-31T11:23:13.418Z,29.10
2018-07-31T11:25:42.155Z,28.90
2018-07-31T11:28:10.948Z,28.40
2018-07-31T11:30:39.971Z,28.10
2018-07-31T11:33:09.076Z,27.40
2018-07-31T11:35:37.938Z,29.40
2018-07-31T11:38:07.187Z,28.90
2018-07-31T11:40:35.931Z,26.60
2018-07-31T11:43:05.000Z,25.90
2018-07-31T11:45:33.695Z,25.80
2018-07-31T11:48:02.410Z,25.60
2018-07-31T11:50:31.351Z,25.60
2018-07-31T11:53:00.112Z,26.10
2018-07-31T11:55:28.839Z,25.70
2018-07-31T11:57:57.600Z,26.60
2018-07-31T12:00:26.636Z,26.40
2018-07-31T12:02:55.846Z,26.00
2018-07-31T12:05:24.889Z,25.80
2018-07-31T12:07:53.626Z,26.10
2018-07-31T12:10:22.372Z,25.00
2018-07-31T12:12:51.101Z,24.00
2018-07-31T12:15:19.818Z,23.30
2018-07-31T12:17:48.817Z,24.00
2018-07-31T12:20:17.538Z,23.90
2018-07-31T12:22:46.294Z,24.50
2018-07-31T12:25:15.050Z,25.10
2018-07-31T12:27:43.787Z,25.80
2018-07-31T12:30:12.492Z,25.90
2018-07-31T12:32:41.749Z,26.40
2018-07-31T12:35:10.945Z,23.60
2018-07-31T12:37:40.451Z,23.60
2018-07-31T12:40:09.202Z,22.90
2018-07-31T12:42:37.938Z,22.90
2018-07-31T12:45:06.643Z,22.90
2018-07-31T12:47:35.397Z,23.10
2018-07-31T12:50:04.590Z,22.80
2018-07-31T12:52:33.509Z,23.20
2018-07-31T12:55:02.240Z,23.50
2018-07-31T12:57:30.983Z,22.60
2018-07-31T12:59:59.801Z,21.70
2018-07-31T13:02:28.696Z,22.00
2018-07-31T13:04:57.398Z,23.30
2018-07-31T13:07:26.508Z,22.70
2018-07-31T13:09:55.228Z,22.10
2018-07-31T13:12:23.983Z,21.50
2018-07-31T13:14:52.995Z,22.50
2018-07-31T13:17:21.795Z,22.40
2018-07-31T13:19:50.527Z,22.00
2018-07-31T13:22:19.447Z,21.50
2018-07-31T13:24:48.437Z,21.80
2018-07-31T13:27:17.228Z,22.30
2018-07-31T13:29:46.192Z,22.10
2018-07-31T13:32:15.036Z,21.60
2018-07-31T13:34:43.760Z,21.50
2018-07-31T13:37:12.525Z,21.90
2018-07-31T13:39:41.405Z,22.40
2018-07-31T13:42:10.185Z,21.40
2018-07-31T13:44:39.131Z,21.80
2018-07-31T13:47:07.866Z,22.70
2018-07-31T13:49:36.576Z,22.90
2018-07-31T13:52:06.015Z,23.10
2018-07-31T13:54:34.727Z,22.90
2018-07-31T13:57:03.459Z,23.10
2018-07-31T13:59:32.207Z,23.20
2018-07-31T14:02:00.908Z,22.40
2018-07-31T14:04:29.666Z,22.50
2018-07-31T14:06:58.590Z,22.70
2018-07-31T14:09:27.499Z,22.00
2018-07-31T14:11:56.211Z,22.60
2018-07-31T14:14:24.938Z,22.20
2018-07-31T14:16:53.731Z,20.90
2018-07-31T14:19:22.490Z,21.50
2018-07-31T14:21:51.218Z,21.70
2018-07-31T14:24:19.946Z,21.30
2018-07-31T14:26:48.824Z,22.20
2018-07-31T14:29:17.547Z,22.70
2018-07-31T14:31:46.249Z,21.50
2018-07-31T14:34:15.012Z,21.80
2018-07-31T14:36:50.291Z,21.80
2018-07-31T14:39:19.948Z,21.50
2018-07-31T14:41:49.329Z,22.40
2018-07-31T14:44:18.894Z,23.00
2018-07-31T14:46:48.362Z,23.90
2018-07-31T14:49:18.250Z,23.60
2018-07-31T14:51:47.730Z,21.60
2018-07-31T14:54:18.272Z,22.40
2018-07-31T14:56:48.275Z,22.80
2018-07-31T14:59:18.739Z,22.40
2018-07-31T15:01:48.442Z,21.00
2018-07-31T15:04:18.162Z,21.40
2018-07-31T15:06:48.139Z,21.90
2018-07-31T15:09:18.046Z,21.50
2018-07-31T15:11:48.064Z,22.10
2018-07-31T15:14:17.702Z,22.40
2018-07-31T15:16:47.333Z,22.50
2018-07-31T15:19:17.329Z,22.60
2018-07-31T15:21:47.514Z,22.70
2018-07-31T15:24:17.104Z,22.90
2018-07-31T15:26:45.848Z,22.30
2018-07-31T15:29:14.682Z,22.80
2018-07-31T15:31:43.376Z,22.80
2018-07-31T15:34:12.212Z,22.60
2018-07-31T15:36:40.918Z,22.90
2018-07-31T15:39:12.203Z,22.50
2018-07-31T15:41:41.259Z,22.60
2018-07-31T15:44:11.458Z,22.30
2018-07-31T15:46:40.239Z,22.70
2018-07-31T15:49:09.031Z,23.20
2018-07-31T15:51:37.744Z,22.70
2018-07-31T15:54:06.919Z,23.40
2018-07-31T15:56:36.161Z,23.50
2018-07-31T15:59:05.306Z,23.70
2018-07-31T16:01:34.015Z,23.90
2018-07-31T16:04:02.775Z,23.00
2018-07-31T16:06:31.677Z,23.80
2018-07-31T16:09:00.487Z,22.60
2018-07-31T16:11:29.246Z,22.70
2018-07-31T16:13:58.015Z,23.10
2018-07-31T16:16:26.768Z,22.60
2018-07-31T16:18:55.494Z,23.50
2018-07-31T16:21:24.215Z,23.40
2018-07-31T16:23:52.947Z,23.60
2018-07-31T16:26:22.095Z,24.00
2018-07-31T16:28:50.818Z,23.80
2018-07-31T16:31:19.527Z,22.90
2018-07-31T16:33:48.266Z,23.80
2018-07-31T16:36:17.002Z,23.10
2018-07-31T16:38:45.875Z,23.30
2018-07-31T16:43:43.404Z,23.60
2018-07-31T16:46:12.131Z,24.20
2018-07-31T16:48:40.876Z,24.00
2018-07-31T16:51:09.972Z,23.60
2018-07-31T16:53:38.688Z,23.40
2018-07-31T16:56:07.776Z,24.10
2018-07-31T16:58:36.482Z,23.50
2018-07-31T17:01:05.219Z,24.10
2018-07-31T17:03:33.921Z,24.10
2018-07-31T17:06:02.656Z,24.30
2018-07-31T17:08:31.372Z,24.50
2018-07-31T17:11:00.135Z,24.30
2018-07-31T17:13:29.191Z,24.10
2018-07-31T17:15:57.991Z,24.50
2018-07-31T17:18:27.392Z,24.60
2018-07-31T17:20:56.135Z,25.30
2018-07-31T17:23:24.866Z,25.20
2018-07-31T17:25:53.919Z,25.80
2018-07-31T17:28:22.914Z,25.30
2018-07-31T17:30:52.002Z,25.70
2018-07-31T17:33:20.980Z,25.80
2018-07-31T17:35:50.014Z,26.00
2018-07-31T17:38:19.286Z,26.20
2018-07-31T17:40:48.305Z,26.30
2018-07-31T17:43:17.287Z,26.70
2018-07-31T17:45:46.325Z,27.00
2018-07-31T17:48:15.331Z,27.20
2018-07-31T17:50:44.759Z,27.50
2018-07-31T17:53:13.811Z,26.60
2018-07-31T17:55:42.860Z,27.80
2018-07-31T17:58:12.149Z,27.90
2018-07-31T18:00:41.272Z,28.10
2018-07-31T18:03:10.254Z,29.10
2018-07-31T18:05:39.634Z,30.70
2018-07-31T18:08:08.629Z,30.00
2018-07-31T18:10:37.652Z,29.90
2018-07-31T18:13:06.647Z,29.90
2018-07-31T18:15:35.682Z,30.40
2018-07-31T18:18:04.702Z,30.50
2018-07-31T18:20:33.731Z,31.90
2018-07-31T18:23:03.085Z,32.40
2018-07-31T18:25:32.406Z,32.80
2018-07-31T18:28:01.469Z,33.30
2018-07-31T18:30:30.629Z,32.40
2018-07-31T18:32:59.775Z,32.30
2018-07-31T18:35:28.824Z,31.60
2018-07-31T18:37:57.803Z,31.40
2018-07-31T18:40:26.832Z,31.20
2018-07-31T18:42:56.203Z,32.30
2018-07-31T18:45:25.584Z,31.60
2018-07-31T18:47:55.782Z,31.70
2018-07-31T18:50:24.873Z,32.70
2018-07-31T18:52:53.988Z,33.10
2018-07-31T18:55:23.314Z,33.20
2018-07-31T18:57:53.022Z,33.50
2018-07-31T19:00:22.084Z,35.10
2018-07-31T19:02:51.130Z,34.70
2018-07-31T19:05:21.318Z,35.10
2018-07-31T19:07:50.855Z,35.10
2018-07-31T19:12:50.967Z,35.80
2018-07-31T19:15:22.764Z,36.10
2018-07-31T19:17:52.040Z,36.60
2018-07-31T19:20:21.916Z,36.80
2018-07-31T19:22:51.078Z,37.00
2018-07-31T19:25:20.911Z,37.10
2018-07-31T19:27:50.658Z,37.10
2018-07-31T19:30:19.895Z,37.60
2018-07-31T19:32:49.756Z,38.10
2018-07-31T19:35:19.922Z,38.70
2018-07-31T19:37:48.909Z,38.70
2018-07-31T19:40:19.537Z,39.30
2018-07-31T19:42:48.635Z,39.20
2018-07-31T19:45:18.232Z,39.40
2018-07-31T19:47:47.353Z,39.90
2018-07-31T19:50:17.147Z,40.20
2018-07-31T19:52:46.650Z,41.00
2018-07-31T19:55:15.767Z,40.90
2018-07-31T19:57:46.129Z,41.30
2018-07-31T20:00:15.254Z,41.90
2018-07-31T20:02:45.622Z,42.80
2018-07-31T20:05:16.209Z,42.70
2018-07-31T20:07:45.448Z,42.70
2018-07-31T20:10:14.629Z,42.80
2018-07-31T20:12:43.646Z,43.10
2018-07-31T20:15:13.132Z,43.60
2018-07-31T20:17:43.275Z,43.50
2018-07-31T20:20:12.732Z,43.20
2018-07-31T20:22:41.854Z,43.30
2018-07-31T20:25:11.222Z,43.70
2018-07-31T20:27:40.969Z,44.10
2018-07-31T20:30:12.061Z,44.10
2018-07-31T20:32:41.325Z,44.40
2018-07-31T20:35:12.383Z,44.50
2018-07-31T20:37:42.286Z,44.40
2018-07-31T20:40:11.653Z,44.30
2018-07-31T20:42:41.416Z,44.70
2018-07-31T20:45:12.497Z,45.00
2018-07-31T20:47:43.964Z,45.00
2018-07-31T20:50:15.620Z,45.40
2018-07-31T20:52:45.401Z,45.50
2018-07-31T20:55:17.723Z,45.80
2018-07-31T20:57:46.831Z,46.10
2018-07-31T21:00:15.905Z,46.40
2018-07-31T21:02:45.494Z,46.60
2018-07-31T21:05:20.884Z,46.80
2018-07-31T21:07:51.236Z,47.50
2018-07-31T21:10:20.900Z,47.90
2018-07-31T21:12:51.015Z,47.90
2018-07-31T21:17:48.834Z,47.30
2018-07-31T21:20:18.149Z,47.00
2018-07-31T21:22:47.374Z,46.90
2018-07-31T21:25:16.504Z,46.50
2018-07-31T21:27:45.714Z,46.60
2018-07-31T21:30:16.011Z,47.60
2018-07-31T21:32:45.245Z,47.50
2018-07-31T21:35:15.467Z,48.20
2018-07-31T21:37:45.112Z,48.50
2018-07-31T21:40:14.710Z,49.60
2018-07-31T21:42:43.738Z,50.30
2018-07-31T21:45:12.824Z,52.10
2018-07-31T21:47:42.311Z,52.30
2018-07-31T21:50:11.000Z,52.00
2018-07-31T21:52:40.078Z,51.80
2018-07-31T21:55:08.663Z,52.00
2018-07-31T21:57:37.150Z,51.40
2018-07-31T22:02:35.583Z,51.20
2018-07-31T22:05:04.765Z,51.80
2018-07-31T22:07:33.272Z,52.80
2018-07-31T22:10:02.288Z,53.40
2018-07-31T22:12:30.849Z,53.90
2018-07-31T22:14:59.355Z,54.00
2018-07-31T22:17:27.994Z,54.10
2018-07-31T22:19:57.892Z,54.10
2018-07-31T22:22:26.395Z,54.20
2018-07-31T22:24:54.884Z,54.50
2018-07-31T22:27:23.539Z,54.80
2018-07-31T22:29:51.991Z,55.10
2018-07-31T22:32:20.481Z,55.30
2018-07-31T22:34:48.928Z,55.40
2018-07-31T22:37:17.477Z,55.70
2018-07-31T22:39:45.920Z,55.70
2018-07-31T22:42:14.432Z,55.70
2018-07-31T22:44:42.871Z,55.60
2018-07-31T22:47:11.468Z,55.60
2018-07-31T22:49:39.956Z,55.60
2018-07-31T22:52:08.436Z,56.00
2018-07-31T22:54:36.923Z,56.10
2018-07-31T22:57:05.376Z,56.40
2018-07-31T23:02:02.007Z,56.40
2018-07-31T23:04:30.545Z,56.30
2018-07-31T23:06:59.014Z,55.90
2018-07-31T23:09:27.559Z,55.30
2018-07-31T23:11:56.059Z,55.00
2018-07-31T23:14:24.600Z,54.40
2018-07-31T23:16:53.075Z,54.30
2018-07-31T23:19:21.591Z,53.80
2018-07-31T23:21:50.075Z,53.50
2018-07-31T23:24:18.607Z,53.60
2018-07-31T23:26:47.053Z,53.40
2018-07-31T23:29:15.555Z,53.50
2018-07-31T23:31:43.993Z,53.30
2018-07-31T23:34:12.483Z,53.90
2018-07-31T23:36:40.940Z,54.30
2018-07-31T23:39:10.902Z,54.30
2018-07-31T23:41:39.779Z,54.20
2018-07-31T23:44:09.076Z,55.30
2018-07-31T23:46:38.051Z,55.70
2018-07-31T23:51:34.758Z,55.80
2018-07-31T23:54:03.291Z,55.20
2018-07-31T23:59:00.015Z,55.30
